sensor_id;sensor_type;location;lat;lon;timestamp;pressure;altitude;pressure_sealevel;temperature;humidity
76074;BME280;64776;42.636;24.358;2023-02-28T00:00:50;90538.72;;;4.22;90.52
76074;BME280;64776;42.636;24.358;2023-02-28T00:03:51;90541.44;;;4.31;90.46
76074;BME280;64776;42.636;24.358;2023-02-28T00:06:52;90552.75;;;4.32;91.69
76074;BME280;64776;42.636;24.358;2023-02-28T00:09:54;90550.75;;;4.23;92.47
76074;BME280;64776;42.636;24.358;2023-02-28T00:12:59;90549.91;;;4.13;92.80
76074;BME280;64776;42.636;24.358;2023-02-28T00:16:01;90552.25;;;4.24;93.36
76074;BME280;64776;42.636;24.358;2023-02-28T00:19:02;90562.16;;;4.20;92.96
76074;BME280;64776;42.636;24.358;2023-02-28T00:22:03;90567.13;;;4.18;92.51
76074;BME280;64776;42.636;24.358;2023-02-28T00:25:06;90570.25;;;4.00;93.63
76074;BME280;64776;42.636;24.358;2023-02-28T00:28:07;90563.38;;;3.90;93.62
76074;BME280;64776;42.636;24.358;2023-02-28T00:31:08;90564.31;;;3.84;93.81
76074;BME280;64776;42.636;24.358;2023-02-28T00:34:09;90552.19;;;3.99;93.67
76074;BME280;64776;42.636;24.358;2023-02-28T00:37:11;90566.78;;;4.03;92.76
76074;BME280;64776;42.636;24.358;2023-02-28T00:40:13;90567.19;;;4.02;92.54
76074;BME280;64776;42.636;24.358;2023-02-28T00:43:14;90568.69;;;4.03;92.95
76074;BME280;64776;42.636;24.358;2023-02-28T00:46:16;90572.59;;;4.11;92.77
76074;BME280;64776;42.636;24.358;2023-02-28T00:49:17;90571.53;;;4.08;92.20
76074;BME280;64776;42.636;24.358;2023-02-28T00:52:17;90577.13;;;4.10;92.40
76074;BME280;64776;42.636;24.358;2023-02-28T00:55:20;90575.06;;;4.18;91.15
76074;BME280;64776;42.636;24.358;2023-02-28T00:58:21;90576.19;;;4.17;91.50
76074;BME280;64776;42.636;24.358;2023-02-28T01:01:22;90565.84;;;4.23;92.36
76074;BME280;64776;42.636;24.358;2023-02-28T01:04:22;90562.06;;;4.36;90.83
76074;BME280;64776;42.636;24.358;2023-02-28T01:07:23;90572.09;;;4.41;90.88
76074;BME280;64776;42.636;24.358;2023-02-28T01:10:27;90565.13;;;4.47;90.48
76074;BME280;64776;42.636;24.358;2023-02-28T01:13:28;90549.38;;;4.44;91.47
76074;BME280;64776;42.636;24.358;2023-02-28T01:16:30;90560.25;;;4.33;91.28
76074;BME280;64776;42.636;24.358;2023-02-28T01:19:31;90556.03;;;4.23;92.51
76074;BME280;64776;42.636;24.358;2023-02-28T01:22:31;90558.34;;;4.21;92.88
76074;BME280;64776;42.636;24.358;2023-02-28T01:25:35;90555.41;;;4.44;91.24
76074;BME280;64776;42.636;24.358;2023-02-28T01:28:36;90564.28;;;4.50;92.15
76074;BME280;64776;42.636;24.358;2023-02-28T01:31:37;90563.00;;;4.42;91.99
76074;BME280;64776;42.636;24.358;2023-02-28T01:34:38;90559.19;;;4.56;91.29
76074;BME280;64776;42.636;24.358;2023-02-28T01:37:38;90563.09;;;4.64;91.01
76074;BME280;64776;42.636;24.358;2023-02-28T01:40:41;90568.38;;;4.76;90.67
76074;BME280;64776;42.636;24.358;2023-02-28T01:43:57;90570.19;;;4.79;89.82
76074;BME280;64776;42.636;24.358;2023-02-28T01:46:58;90564.25;;;4.88;90.05
76074;BME280;64776;42.636;24.358;2023-02-28T01:50:01;90565.94;;;4.94;89.15
76074;BME280;64776;42.636;24.358;2023-02-28T01:53:06;90567.22;;;4.90;89.83
76074;BME280;64776;42.636;24.358;2023-02-28T01:56:10;90562.66;;;4.90;88.99
76074;BME280;64776;42.636;24.358;2023-02-28T01:59:14;90561.22;;;5.11;88.80
76074;BME280;64776;42.636;24.358;2023-02-28T02:02:20;90555.44;;;5.04;88.37
76074;BME280;64776;42.636;24.358;2023-02-28T02:05:24;90558.72;;;5.08;88.30
76074;BME280;64776;42.636;24.358;2023-02-28T02:08:26;90550.66;;;5.11;88.17
76074;BME280;64776;42.636;24.358;2023-02-28T02:11:30;90554.97;;;5.18;88.66
76074;BME280;64776;42.636;24.358;2023-02-28T02:14:40;90555.28;;;5.20;88.27
76074;BME280;64776;42.636;24.358;2023-02-28T02:17:47;90559.19;;;5.28;87.51
76074;BME280;64776;42.636;24.358;2023-02-28T02:21:10;90563.31;;;5.29;87.75
76074;BME280;64776;42.636;24.358;2023-02-28T02:24:45;90558.97;;;5.35;87.89
76074;BME280;64776;42.636;24.358;2023-02-28T02:28:27;90555.13;;;5.36;86.82
76074;BME280;64776;42.636;24.358;2023-02-28T02:35:08;90558.03;;;5.29;87.60
76074;BME280;64776;42.636;24.358;2023-02-28T02:38:18;90570.97;;;5.14;87.48
76074;BME280;64776;42.636;24.358;2023-02-28T02:41:31;90572.03;;;5.17;87.90
76074;BME280;64776;42.636;24.358;2023-02-28T02:44:40;90573.50;;;5.18;88.54
76074;BME280;64776;42.636;24.358;2023-02-28T02:47:44;90568.66;;;5.16;87.88
76074;BME280;64776;42.636;24.358;2023-02-28T02:50:49;90571.78;;;5.24;88.38
76074;BME280;64776;42.636;24.358;2023-02-28T02:53:53;90570.31;;;5.23;87.71
76074;BME280;64776;42.636;24.358;2023-02-28T02:56:57;90572.78;;;5.17;87.38
76074;BME280;64776;42.636;24.358;2023-02-28T03:00:00;90573.53;;;5.05;88.44
76074;BME280;64776;42.636;24.358;2023-02-28T03:03:03;90579.38;;;5.00;88.06
76074;BME280;64776;42.636;24.358;2023-02-28T03:06:06;90588.88;;;5.10;88.18
76074;BME280;64776;42.636;24.358;2023-02-28T03:09:07;90592.25;;;5.11;88.88
76074;BME280;64776;42.636;24.358;2023-02-28T03:12:11;90591.81;;;5.12;87.65
76074;BME280;64776;42.636;24.358;2023-02-28T03:15:18;90594.59;;;5.09;88.35
76074;BME280;64776;42.636;24.358;2023-02-28T03:18:25;90601.97;;;5.14;87.89
76074;BME280;64776;42.636;24.358;2023-02-28T03:21:35;90603.47;;;5.15;87.97
76074;BME280;64776;42.636;24.358;2023-02-28T03:24:42;90603.66;;;5.20;88.61
76074;BME280;64776;42.636;24.358;2023-02-28T03:27:52;90604.41;;;5.21;87.84
76074;BME280;64776;42.636;24.358;2023-02-28T03:30:57;90602.38;;;5.25;87.94
76074;BME280;64776;42.636;24.358;2023-02-28T03:34:05;90606.19;;;5.11;87.78
76074;BME280;64776;42.636;24.358;2023-02-28T03:37:12;90608.44;;;5.13;88.00
76074;BME280;64776;42.636;24.358;2023-02-28T03:40:18;90614.97;;;5.21;88.12
76074;BME280;64776;42.636;24.358;2023-02-28T03:43:23;90618.25;;;5.25;89.03
76074;BME280;64776;42.636;24.358;2023-02-28T03:46:28;90618.44;;;5.30;87.40
76074;BME280;64776;42.636;24.358;2023-02-28T03:49:33;90616.97;;;5.29;88.24
76074;BME280;64776;42.636;24.358;2023-02-28T03:52:42;90616.31;;;5.38;88.40
76074;BME280;64776;42.636;24.358;2023-02-28T03:55:46;90618.97;;;5.38;88.90
76074;BME280;64776;42.636;24.358;2023-02-28T03:58:53;90617.97;;;5.44;88.23
76074;BME280;64776;42.636;24.358;2023-02-28T04:01:54;90619.34;;;5.49;88.12
76074;BME280;64776;42.636;24.358;2023-02-28T04:04:55;90624.53;;;5.52;86.84
76074;BME280;64776;42.636;24.358;2023-02-28T04:08:05;90624.03;;;5.45;87.00
76074;BME280;64776;42.636;24.358;2023-02-28T04:11:16;90629.19;;;5.48;87.32
76074;BME280;64776;42.636;24.358;2023-02-28T04:14:19;90632.91;;;5.51;87.00
76074;BME280;64776;42.636;24.358;2023-02-28T04:17:19;90631.44;;;5.50;87.74
76074;BME280;64776;42.636;24.358;2023-02-28T04:20:21;90637.34;;;5.54;87.30
76074;BME280;64776;42.636;24.358;2023-02-28T04:23:24;90628.00;;;5.62;87.07
76074;BME280;64776;42.636;24.358;2023-02-28T04:26:25;90636.06;;;5.58;87.68
76074;BME280;64776;42.636;24.358;2023-02-28T04:29:27;90640.38;;;5.65;87.22
76074;BME280;64776;42.636;24.358;2023-02-28T04:32:28;90632.56;;;5.61;86.91
76074;BME280;64776;42.636;24.358;2023-02-28T04:35:29;90637.50;;;5.72;86.79
76074;BME280;64776;42.636;24.358;2023-02-28T04:38:33;90635.47;;;5.76;87.09
76074;BME280;64776;42.636;24.358;2023-02-28T04:41:34;90638.13;;;5.76;87.48
76074;BME280;64776;42.636;24.358;2023-02-28T04:44:35;90635.78;;;5.78;87.01
76074;BME280;64776;42.636;24.358;2023-02-28T04:47:35;90643.09;;;5.74;88.10
76074;BME280;64776;42.636;24.358;2023-02-28T04:50:36;90636.88;;;5.68;88.37
76074;BME280;64776;42.636;24.358;2023-02-28T04:53:39;90641.31;;;5.71;88.46
76074;BME280;64776;42.636;24.358;2023-02-28T04:56:40;90640.31;;;5.77;88.67
76074;BME280;64776;42.636;24.358;2023-02-28T04:59:41;90636.22;;;5.76;88.47
76074;BME280;64776;42.636;24.358;2023-02-28T05:02:42;90633.13;;;5.78;89.12
76074;BME280;64776;42.636;24.358;2023-02-28T05:05:42;90638.13;;;5.76;90.07
76074;BME280;64776;42.636;24.358;2023-02-28T05:08:44;90633.34;;;5.71;90.57
76074;BME280;64776;42.636;24.358;2023-02-28T05:11:45;90633.03;;;5.69;91.12
76074;BME280;64776;42.636;24.358;2023-02-28T05:14:46;90638.25;;;5.72;91.63
76074;BME280;64776;42.636;24.358;2023-02-28T05:17:47;90642.66;;;5.75;91.35
76074;BME280;64776;42.636;24.358;2023-02-28T05:20:48;90638.97;;;5.73;91.44
76074;BME280;64776;42.636;24.358;2023-02-28T05:23:50;90641.91;;;5.75;92.36
76074;BME280;64776;42.636;24.358;2023-02-28T05:26:52;90652.19;;;5.73;92.25
76074;BME280;64776;42.636;24.358;2023-02-28T05:29:53;90656.66;;;5.76;93.52
76074;BME280;64776;42.636;24.358;2023-02-28T05:32:54;90665.97;;;5.81;93.40
76074;BME280;64776;42.636;24.358;2023-02-28T05:35:55;90670.00;;;5.85;93.89
76074;BME280;64776;42.636;24.358;2023-02-28T05:38:57;90670.94;;;5.91;94.20
76074;BME280;64776;42.636;24.358;2023-02-28T05:41:58;90682.38;;;5.88;94.44
76074;BME280;64776;42.636;24.358;2023-02-28T05:44:59;90678.25;;;5.87;95.44
76074;BME280;64776;42.636;24.358;2023-02-28T05:48:00;90685.22;;;5.94;94.70
76074;BME280;64776;42.636;24.358;2023-02-28T05:51:01;90684.06;;;5.95;95.32
76074;BME280;64776;42.636;24.358;2023-02-28T05:54:03;90686.56;;;5.98;95.07
76074;BME280;64776;42.636;24.358;2023-02-28T05:57:04;90684.81;;;5.95;94.97
76074;BME280;64776;42.636;24.358;2023-02-28T06:00:06;90683.50;;;6.00;95.45
76074;BME280;64776;42.636;24.358;2023-02-28T06:03:07;90681.06;;;6.05;94.92
76074;BME280;64776;42.636;24.358;2023-02-28T06:06:08;90686.47;;;6.02;94.79
76074;BME280;64776;42.636;24.358;2023-02-28T06:09:11;90689.00;;;6.05;95.08
76074;BME280;64776;42.636;24.358;2023-02-28T06:12:11;90689.94;;;6.11;94.46
76074;BME280;64776;42.636;24.358;2023-02-28T06:15:13;90689.63;;;6.09;94.85
76074;BME280;64776;42.636;24.358;2023-02-28T06:18:14;90688.38;;;6.23;94.56
76074;BME280;64776;42.636;24.358;2023-02-28T06:21:15;90692.53;;;6.24;93.97
76074;BME280;64776;42.636;24.358;2023-02-28T06:24:17;90694.06;;;6.34;93.62
76074;BME280;64776;42.636;24.358;2023-02-28T06:27:18;90697.16;;;6.32;94.09
76074;BME280;64776;42.636;24.358;2023-02-28T06:30:20;90699.25;;;6.37;93.46
76074;BME280;64776;42.636;24.358;2023-02-28T06:33:21;90695.84;;;6.37;93.35
76074;BME280;64776;42.636;24.358;2023-02-28T06:36:22;90699.84;;;6.41;94.00
76074;BME280;64776;42.636;24.358;2023-02-28T06:39:24;90703.75;;;6.49;93.43
76074;BME280;64776;42.636;24.358;2023-02-28T06:42:25;90693.44;;;6.51;93.35
76074;BME280;64776;42.636;24.358;2023-02-28T06:45:26;90702.63;;;6.59;92.94
76074;BME280;64776;42.636;24.358;2023-02-28T06:48:27;90698.88;;;6.70;92.56
76074;BME280;64776;42.636;24.358;2023-02-28T06:51:28;90698.56;;;6.68;92.74
76074;BME280;64776;42.636;24.358;2023-02-28T06:54:30;90700.09;;;6.78;92.40
76074;BME280;64776;42.636;24.358;2023-02-28T06:57:32;90698.69;;;6.86;91.81
76074;BME280;64776;42.636;24.358;2023-02-28T07:00:33;90696.78;;;6.95;92.25
76074;BME280;64776;42.636;24.358;2023-02-28T07:03:35;90699.31;;;6.99;91.14
76074;BME280;64776;42.636;24.358;2023-02-28T07:06:36;90702.09;;;6.95;91.09
76074;BME280;64776;42.636;24.358;2023-02-28T07:09:38;90701.97;;;6.99;90.91
76074;BME280;64776;42.636;24.358;2023-02-28T07:12:39;90702.03;;;7.08;90.99
76074;BME280;64776;42.636;24.358;2023-02-28T07:15:39;90691.47;;;7.17;90.67
76074;BME280;64776;42.636;24.358;2023-02-28T07:18:41;90701.47;;;7.22;90.52
76074;BME280;64776;42.636;24.358;2023-02-28T07:21:42;90702.38;;;7.28;90.21
76074;BME280;64776;42.636;24.358;2023-02-28T07:24:44;90703.75;;;7.32;89.84
76074;BME280;64776;42.636;24.358;2023-02-28T07:27:45;90709.78;;;7.33;89.78
76074;BME280;64776;42.636;24.358;2023-02-28T07:30:46;90714.81;;;7.40;89.30
76074;BME280;64776;42.636;24.358;2023-02-28T07:33:48;90711.41;;;7.30;89.61
76074;BME280;64776;42.636;24.358;2023-02-28T07:36:49;90712.84;;;7.22;89.27
76074;BME280;64776;42.636;24.358;2023-02-28T07:39:51;90711.34;;;7.12;89.42
76074;BME280;64776;42.636;24.358;2023-02-28T07:42:52;90718.38;;;7.06;89.78
76074;BME280;64776;42.636;24.358;2023-02-28T07:45:53;90715.53;;;7.01;89.66
76074;BME280;64776;42.636;24.358;2023-02-28T07:48:53;90719.63;;;6.93;90.25
76074;BME280;64776;42.636;24.358;2023-02-28T07:51:54;90716.84;;;6.96;90.02
76074;BME280;64776;42.636;24.358;2023-02-28T07:54:56;90719.38;;;7.00;89.75
76074;BME280;64776;42.636;24.358;2023-02-28T07:57:57;90718.78;;;7.05;89.60
76074;BME280;64776;42.636;24.358;2023-02-28T08:01:05;90716.63;;;7.12;89.38
76074;BME280;64776;42.636;24.358;2023-02-28T08:04:06;90716.78;;;7.09;89.44
76074;BME280;64776;42.636;24.358;2023-02-28T08:07:07;90716.44;;;7.07;89.95
76074;BME280;64776;42.636;24.358;2023-02-28T08:10:10;90733.06;;;6.98;89.28
76074;BME280;64776;42.636;24.358;2023-02-28T08:13:11;90729.00;;;7.06;89.72
76074;BME280;64776;42.636;24.358;2023-02-28T08:16:13;90727.78;;;6.98;89.53
76074;BME280;64776;42.636;24.358;2023-02-28T08:19:14;90725.44;;;7.00;89.60
76074;BME280;64776;42.636;24.358;2023-02-28T08:22:14;90730.28;;;7.02;89.56
76074;BME280;64776;42.636;24.358;2023-02-28T08:25:17;90731.50;;;7.10;89.22
76074;BME280;64776;42.636;24.358;2023-02-28T08:28:18;90732.78;;;6.96;89.49
76074;BME280;64776;42.636;24.358;2023-02-28T08:31:19;90735.84;;;6.95;89.75
76074;BME280;64776;42.636;24.358;2023-02-28T08:34:20;90733.09;;;6.77;91.07
76074;BME280;64776;42.636;24.358;2023-02-28T08:37:20;90725.19;;;6.86;90.44
76074;BME280;64776;42.636;24.358;2023-02-28T08:40:23;90730.72;;;7.00;90.53
76074;BME280;64776;42.636;24.358;2023-02-28T08:43:24;90729.06;;;6.94;90.37
76074;BME280;64776;42.636;24.358;2023-02-28T08:46:25;90732.34;;;6.98;90.66
76074;BME280;64776;42.636;24.358;2023-02-28T08:49:26;90727.69;;;7.11;90.19
76074;BME280;64776;42.636;24.358;2023-02-28T08:52:27;90725.28;;;7.04;89.65
76074;BME280;64776;42.636;24.358;2023-02-28T08:55:29;90734.53;;;7.21;89.36
76074;BME280;64776;42.636;24.358;2023-02-28T08:58:30;90729.13;;;7.33;89.61
76074;BME280;64776;42.636;24.358;2023-02-28T09:01:31;90729.47;;;7.54;88.78
76074;BME280;64776;42.636;24.358;2023-02-28T09:04:33;90729.16;;;7.43;88.65
76074;BME280;64776;42.636;24.358;2023-02-28T09:07:34;90716.31;;;7.50;88.29
76074;BME280;64776;42.636;24.358;2023-02-28T09:10:36;90716.69;;;7.70;87.53
76074;BME280;64776;42.636;24.358;2023-02-28T09:13:37;90720.53;;;7.69;87.01
76074;BME280;64776;42.636;24.358;2023-02-28T09:16:38;90725.19;;;7.47;87.68
76074;BME280;64776;42.636;24.358;2023-02-28T09:19:38;90717.88;;;7.29;87.68
76074;BME280;64776;42.636;24.358;2023-02-28T09:22:39;90720.84;;;7.01;89.54
76074;BME280;64776;42.636;24.358;2023-02-28T09:25:47;90720.81;;;7.22;89.99
76074;BME280;64776;42.636;24.358;2023-02-28T09:28:48;90732.78;;;7.27;88.80
76074;BME280;64776;42.636;24.358;2023-02-28T09:31:49;90720.34;;;7.15;88.62
76074;BME280;64776;42.636;24.358;2023-02-28T09:34:50;90716.44;;;7.07;89.61
76074;BME280;64776;42.636;24.358;2023-02-28T09:37:51;90717.03;;;7.02;89.65
76074;BME280;64776;42.636;24.358;2023-02-28T09:40:56;90730.75;;;7.09;89.46
76074;BME280;64776;42.636;24.358;2023-02-28T09:43:59;90719.69;;;7.02;89.93
76074;BME280;64776;42.636;24.358;2023-02-28T09:47:07;90712.88;;;7.01;90.20
76074;BME280;64776;42.636;24.358;2023-02-28T09:50:23;90714.13;;;7.09;89.77
76074;BME280;64776;42.636;24.358;2023-02-28T09:53:31;90703.59;;;7.27;88.83
76074;BME280;64776;42.636;24.358;2023-02-28T09:56:37;90695.75;;;7.72;88.88
76074;BME280;64776;42.636;24.358;2023-02-28T09:59:56;90689.91;;;8.13;86.63
76074;BME280;64776;42.636;24.358;2023-02-28T10:06:33;90691.84;;;8.58;83.30
76074;BME280;64776;42.636;24.358;2023-02-28T10:09:37;90688.47;;;8.49;83.86
76074;BME280;64776;42.636;24.358;2023-02-28T10:12:41;90693.19;;;8.63;83.95
76074;BME280;64776;42.636;24.358;2023-02-28T10:15:47;90691.97;;;8.73;83.97
76074;BME280;64776;42.636;24.358;2023-02-28T10:18:54;90695.97;;;8.68;84.26
76074;BME280;64776;42.636;24.358;2023-02-28T10:21:59;90692.25;;;8.66;84.76
76074;BME280;64776;42.636;24.358;2023-02-28T10:25:00;90687.53;;;8.70;84.14
76074;BME280;64776;42.636;24.358;2023-02-28T10:28:09;90688.84;;;8.74;84.40
76074;BME280;64776;42.636;24.358;2023-02-28T10:31:14;90685.34;;;8.59;84.57
76074;BME280;64776;42.636;24.358;2023-02-28T10:34:15;90678.53;;;8.22;85.03
76074;BME280;64776;42.636;24.358;2023-02-28T10:37:16;90679.09;;;8.08;85.12
76074;BME280;64776;42.636;24.358;2023-02-28T10:40:32;90677.66;;;8.16;85.71
76074;BME280;64776;42.636;24.358;2023-02-28T10:43:36;90667.59;;;8.02;85.20
76074;BME280;64776;42.636;24.358;2023-02-28T10:46:39;90662.63;;;7.46;87.84
76074;BME280;64776;42.636;24.358;2023-02-28T10:49:57;90664.06;;;7.29;89.50
76074;BME280;64776;42.636;24.358;2023-02-28T10:53:28;90667.28;;;7.15;89.37
76074;BME280;64776;42.636;24.358;2023-02-28T10:56:31;90667.72;;;7.22;89.59
76074;BME280;64776;42.636;24.358;2023-02-28T10:59:33;90655.84;;;6.96;89.89
76074;BME280;64776;42.636;24.358;2023-02-28T11:02:36;90654.13;;;6.81;90.93
76074;BME280;64776;42.636;24.358;2023-02-28T11:05:41;90651.34;;;6.84;91.13
76074;BME280;64776;42.636;24.358;2023-02-28T11:09:00;90652.75;;;6.98;90.81
76074;BME280;64776;42.636;24.358;2023-02-28T11:12:04;90653.22;;;7.05;90.15
76074;BME280;64776;42.636;24.358;2023-02-28T11:15:23;90659.22;;;6.97;90.28
76074;BME280;64776;42.636;24.358;2023-02-28T11:18:28;90653.41;;;7.11;89.60
76074;BME280;64776;42.636;24.358;2023-02-28T11:21:31;90645.47;;;7.20;89.61
76074;BME280;64776;42.636;24.358;2023-02-28T11:24:35;90642.19;;;7.16;89.43
76074;BME280;64776;42.636;24.358;2023-02-28T11:27:50;90637.41;;;7.51;88.18
76074;BME280;64776;42.636;24.358;2023-02-28T11:31:08;90636.84;;;7.56;87.63
76074;BME280;64776;42.636;24.358;2023-02-28T11:34:32;90631.06;;;7.48;87.49
76074;BME280;64776;42.636;24.358;2023-02-28T11:37:33;90626.97;;;7.56;87.73
76074;BME280;64776;42.636;24.358;2023-02-28T11:40:41;90626.38;;;7.52;88.97
76074;BME280;64776;42.636;24.358;2023-02-28T11:43:56;90627.81;;;7.44;87.94
76074;BME280;64776;42.636;24.358;2023-02-28T11:47:09;90631.66;;;7.43;88.61
76074;BME280;64776;42.636;24.358;2023-02-28T11:50:44;90615.75;;;7.43;88.16
76074;BME280;64776;42.636;24.358;2023-02-28T11:54:07;90625.94;;;7.63;87.47
76074;BME280;64776;42.636;24.358;2023-02-28T11:57:22;90620.31;;;7.33;88.21
76074;BME280;64776;42.636;24.358;2023-02-28T12:00:39;90622.22;;;7.42;87.90
76074;BME280;64776;42.636;24.358;2023-02-28T12:03:45;90613.09;;;7.43;88.13
76074;BME280;64776;42.636;24.358;2023-02-28T12:06:54;90612.19;;;7.37;88.33
76074;BME280;64776;42.636;24.358;2023-02-28T12:10:04;90608.22;;;7.51;87.47
76074;BME280;64776;42.636;24.358;2023-02-28T12:13:16;90607.22;;;7.75;86.13
76074;BME280;64776;42.636;24.358;2023-02-28T12:16:40;90599.25;;;7.93;85.07
76074;BME280;64776;42.636;24.358;2023-02-28T12:19:51;90595.69;;;8.23;85.42
76074;BME280;64776;42.636;24.358;2023-02-28T12:23:10;90607.19;;;8.48;84.29
76074;BME280;64776;42.636;24.358;2023-02-28T12:26:19;90602.16;;;8.59;84.33
76074;BME280;64776;42.636;24.358;2023-02-28T12:29:28;90608.22;;;8.50;83.80
76074;BME280;64776;42.636;24.358;2023-02-28T12:32:32;90596.56;;;8.57;83.30
76074;BME280;64776;42.636;24.358;2023-02-28T12:35:37;90607.19;;;8.48;83.43
76074;BME280;64776;42.636;24.358;2023-02-28T12:38:42;90600.84;;;8.54;83.54
76074;BME280;64776;42.636;24.358;2023-02-28T12:41:48;90594.59;;;8.57;82.25
76074;BME280;64776;42.636;24.358;2023-02-28T12:44:53;90591.47;;;8.68;82.29
76074;BME280;64776;42.636;24.358;2023-02-28T12:47:58;90594.13;;;8.68;82.48
76074;BME280;64776;42.636;24.358;2023-02-28T12:51:03;90591.25;;;8.48;82.34
76074;BME280;64776;42.636;24.358;2023-02-28T12:54:12;90584.25;;;8.68;82.98
76074;BME280;64776;42.636;24.358;2023-02-28T12:57:21;90577.59;;;8.64;82.04
76074;BME280;64776;42.636;24.358;2023-02-28T13:00:29;90584.19;;;8.86;81.03
76074;BME280;64776;42.636;24.358;2023-02-28T13:07:32;90576.88;;;8.63;82.88
76074;BME280;64776;42.636;24.358;2023-02-28T13:10:39;90574.59;;;8.80;81.50
76074;BME280;64776;42.636;24.358;2023-02-28T13:13:44;90576.47;;;8.88;81.67
76074;BME280;64776;42.636;24.358;2023-02-28T13:17:01;90579.59;;;8.87;82.73
76074;BME280;64776;42.636;24.358;2023-02-28T13:20:02;90571.94;;;8.80;83.31
76074;BME280;64776;42.636;24.358;2023-02-28T13:23:36;90568.75;;;8.67;83.64
76074;BME280;64776;42.636;24.358;2023-02-28T18:57:49;90649.50;;;5.05;89.68
76074;BME280;64776;42.636;24.358;2023-02-28T19:00:53;90660.06;;;5.05;89.24
76074;BME280;64776;42.636;24.358;2023-02-28T19:03:54;90652.13;;;5.05;88.98
76074;BME280;64776;42.636;24.358;2023-02-28T19:06:56;90653.59;;;5.06;90.03
76074;BME280;64776;42.636;24.358;2023-02-28T19:09:56;90654.22;;;5.10;89.74
76074;BME280;64776;42.636;24.358;2023-02-28T19:12:58;90656.03;;;5.13;89.10
76074;BME280;64776;42.636;24.358;2023-02-28T19:16:03;90653.59;;;5.18;89.54
76074;BME280;64776;42.636;24.358;2023-02-28T19:19:04;90652.84;;;5.18;89.60
76074;BME280;64776;42.636;24.358;2023-02-28T19:22:05;90658.44;;;5.20;89.03
76074;BME280;64776;42.636;24.358;2023-02-28T19:25:07;90656.25;;;5.18;88.91
76074;BME280;64776;42.636;24.358;2023-02-28T19:28:09;90662.28;;;5.19;88.52
76074;BME280;64776;42.636;24.358;2023-02-28T19:31:12;90658.56;;;5.16;89.15
76074;BME280;64776;42.636;24.358;2023-02-28T19:34:12;90654.34;;;5.19;88.47
76074;BME280;64776;42.636;24.358;2023-02-28T19:37:13;90658.13;;;5.18;89.04
76074;BME280;64776;42.636;24.358;2023-02-28T19:40:14;90656.34;;;5.15;89.36
76074;BME280;64776;42.636;24.358;2023-02-28T19:43:16;90659.31;;;5.17;88.92
76074;BME280;64776;42.636;24.358;2023-02-28T19:46:17;90661.09;;;5.20;89.15
76074;BME280;64776;42.636;24.358;2023-02-28T19:49:18;90653.47;;;5.22;89.26
76074;BME280;64776;42.636;24.358;2023-02-28T19:52:19;90651.78;;;5.28;88.70
76074;BME280;64776;42.636;24.358;2023-02-28T19:55:19;90652.53;;;5.28;88.12
76074;BME280;64776;42.636;24.358;2023-02-28T19:58:22;90654.97;;;5.23;88.57
76074;BME280;64776;42.636;24.358;2023-02-28T20:01:23;90653.06;;;5.23;88.40
76074;BME280;64776;42.636;24.358;2023-02-28T20:04:25;90650.19;;;5.18;88.08
76074;BME280;64776;42.636;24.358;2023-02-28T20:07:27;90657.50;;;5.14;88.29
76074;BME280;64776;42.636;24.358;2023-02-28T20:10:28;90652.84;;;5.18;88.90
76074;BME280;64776;42.636;24.358;2023-02-28T20:13:30;90657.72;;;5.19;89.04
76074;BME280;64776;42.636;24.358;2023-02-28T20:16:31;90645.66;;;5.18;88.76
76074;BME280;64776;42.636;24.358;2023-02-28T20:19:32;90646.94;;;5.14;88.96
76074;BME280;64776;42.636;24.358;2023-02-28T20:22:33;90653.28;;;5.16;88.70
76074;BME280;64776;42.636;24.358;2023-02-28T20:25:38;90654.47;;;5.15;88.06
76074;BME280;64776;42.636;24.358;2023-02-28T20:28:40;90652.00;;;5.21;88.63
76074;BME280;64776;42.636;24.358;2023-02-28T20:31:42;90653.38;;;5.25;88.43
76074;BME280;64776;42.636;24.358;2023-02-28T20:34:43;90647.78;;;5.23;88.68
76074;BME280;64776;42.636;24.358;2023-02-28T20:37:43;90643.00;;;5.18;88.44
76074;BME280;64776;42.636;24.358;2023-02-28T20:40:44;90649.06;;;5.19;88.58
76074;BME280;64776;42.636;24.358;2023-02-28T20:43:46;90633.06;;;5.22;88.72
76074;BME280;64776;42.636;24.358;2023-02-28T20:46:47;90638.59;;;5.15;88.46
76074;BME280;64776;42.636;24.358;2023-02-28T20:49:48;90638.22;;;5.26;88.94
76074;BME280;64776;42.636;24.358;2023-02-28T20:52:49;90633.81;;;5.23;88.40
76074;BME280;64776;42.636;24.358;2023-02-28T20:55:53;90639.00;;;4.88;88.95
76074;BME280;64776;42.636;24.358;2023-02-28T20:58:55;90635.84;;;4.81;89.21
76074;BME280;64776;42.636;24.358;2023-02-28T21:01:56;90634.69;;;4.57;90.65
76074;BME280;64776;42.636;24.358;2023-02-28T21:04:57;90639.09;;;4.47;91.10
76074;BME280;64776;42.636;24.358;2023-02-28T21:07:58;90638.25;;;4.50;90.83
76074;BME280;64776;42.636;24.358;2023-02-28T21:10:59;90628.66;;;4.56;91.34
76074;BME280;64776;42.636;24.358;2023-02-28T21:14:03;90631.81;;;4.64;91.14
76074;BME280;64776;42.636;24.358;2023-02-28T21:17:04;90635.31;;;4.73;90.48
76074;BME280;64776;42.636;24.358;2023-02-28T21:20:06;90630.66;;;4.65;90.76
76074;BME280;64776;42.636;24.358;2023-02-28T21:23:07;90628.75;;;4.65;90.74
76074;BME280;64776;42.636;24.358;2023-02-28T21:26:09;90633.19;;;4.56;91.04
76074;BME280;64776;42.636;24.358;2023-02-28T21:29:12;90632.78;;;4.57;91.55
76074;BME280;64776;42.636;24.358;2023-02-28T21:32:13;90634.25;;;4.58;90.61
76074;BME280;64776;42.636;24.358;2023-02-28T21:35:14;90635.94;;;4.52;90.62
76074;BME280;64776;42.636;24.358;2023-02-28T21:38:15;90635.41;;;4.45;91.45
76074;BME280;64776;42.636;24.358;2023-02-28T21:41:18;90633.16;;;4.43;91.45
76074;BME280;64776;42.636;24.358;2023-02-28T21:44:20;90636.44;;;4.35;91.63
76074;BME280;64776;42.636;24.358;2023-02-28T21:47:21;90641.63;;;4.38;91.62
76074;BME280;64776;42.636;24.358;2023-02-28T21:50:23;90634.94;;;4.21;90.91
76074;BME280;64776;42.636;24.358;2023-02-28T21:53:24;90634.69;;;4.03;91.41
76074;BME280;64776;42.636;24.358;2023-02-28T21:56:26;90647.22;;;3.99;91.19